createdAt,value
2022-11-07T00:00:02.235Z,6.90
2022-11-07T00:02:30.593Z,6.90
2022-11-07T00:04:58.684Z,6.80
2022-11-07T00:07:28.430Z,6.90
2022-11-07T00:09:56.711Z,6.80
2022-11-07T00:12:25.090Z,6.80
2022-11-07T00:14:55.951Z,6.80
2022-11-07T00:17:24.278Z,6.80
2022-11-07T00:19:52.551Z,6.80
2022-11-07T00:22:22.462Z,6.80
2022-11-07T00:24:53.447Z,6.80
2022-11-07T00:41:39.798Z,6.70
2022-11-07T00:44:29.544Z,6.70
2022-11-07T00:46:57.783Z,6.80
2022-11-07T00:49:27.799Z,6.80
2022-11-07T00:51:56.125Z,6.80
2022-11-07T00:54:24.431Z,6.70
2022-11-07T00:56:54.093Z,6.80
2022-11-07T00:59:22.239Z,6.70
2022-11-07T01:01:50.548Z,6.70
2022-11-07T01:04:36.207Z,6.70
2022-11-07T01:07:06.985Z,6.70
2022-11-07T01:09:35.255Z,6.80
2022-11-07T01:12:08.345Z,6.80
2022-11-07T01:14:37.394Z,6.80
2022-11-07T01:17:05.746Z,6.80
2022-11-07T01:19:33.974Z,6.80
2022-11-07T01:22:02.143Z,6.80
2022-11-07T01:24:30.353Z,6.80
2022-11-07T01:26:58.532Z,6.90
2022-11-07T01:29:28.444Z,6.80
2022-11-07T01:31:56.665Z,6.90
2022-11-07T01:34:24.994Z,6.90
2022-11-07T01:36:53.842Z,6.90
2022-11-07T01:40:04.648Z,6.90
2022-11-07T01:42:33.006Z,6.90
2022-11-07T01:45:02.823Z,7.00
2022-11-07T01:47:34.480Z,7.00
2022-11-07T01:50:03.064Z,7.00
2022-11-07T01:52:34.821Z,7.00
2022-11-07T01:55:09.582Z,7.10
2022-11-07T01:57:45.535Z,7.00
2022-11-07T02:00:19.419Z,7.00
2022-11-07T02:02:50.593Z,7.10
2022-11-07T02:05:25.511Z,7.10
2022-11-07T02:07:58.087Z,7.20
2022-11-07T02:10:27.794Z,7.10
2022-11-07T02:12:59.091Z,7.10
2022-11-07T02:15:29.072Z,7.10
2022-11-07T02:17:58.792Z,7.10
2022-11-07T02:20:27.203Z,7.10
2022-11-07T02:23:12.600Z,7.10
2022-11-07T02:25:42.754Z,7.00
2022-11-07T02:28:13.426Z,6.90
2022-11-07T02:30:41.574Z,6.90
2022-11-07T02:33:19.371Z,6.70
2022-11-07T02:35:49.060Z,6.60
2022-11-07T02:38:21.213Z,6.60
2022-11-07T02:40:53.285Z,6.60
2022-11-07T02:43:25.038Z,6.70
2022-11-07T02:45:53.572Z,6.70
2022-11-07T02:48:21.716Z,6.60
2022-11-07T02:50:49.859Z,6.70
2022-11-07T02:53:18.382Z,6.70
2022-11-07T02:55:46.690Z,6.70
2022-11-07T02:58:16.605Z,6.70
2022-11-07T03:00:46.119Z,6.70
2022-11-07T03:03:15.360Z,6.70
2022-11-07T03:05:43.834Z,6.80
2022-11-07T03:08:12.029Z,7.00
2022-11-07T03:10:40.359Z,7.10
2022-11-07T03:13:09.975Z,7.20
2022-11-07T03:15:39.776Z,7.30
2022-11-07T03:18:07.967Z,7.40
2022-11-07T03:20:36.179Z,7.50
2022-11-07T03:23:04.624Z,7.50
2022-11-07T03:25:32.794Z,7.70
2022-11-07T03:28:01.051Z,7.80
2022-11-07T03:30:29.419Z,7.90
2022-11-07T03:32:59.417Z,8.00
2022-11-07T03:35:28.433Z,8.10
2022-11-07T03:37:57.527Z,8.20
2022-11-07T03:40:25.815Z,8.20
2022-11-07T03:42:54.331Z,8.30
2022-11-07T03:45:22.791Z,8.40
2022-11-07T03:47:51.080Z,8.40
2022-11-07T03:50:22.490Z,8.40
2022-11-07T03:52:50.923Z,8.50
2022-11-07T03:55:19.472Z,8.60
2022-11-07T03:57:48.065Z,8.50
2022-11-07T04:00:17.829Z,8.50
2022-11-07T04:02:46.561Z,8.60
2022-11-07T04:05:14.743Z,8.60
2022-11-07T04:07:44.468Z,8.60
2022-11-07T04:10:12.948Z,8.70
2022-11-07T04:12:58.414Z,8.70
2022-11-07T04:15:43.914Z,8.80
2022-11-07T04:18:12.402Z,8.90
2022-11-07T04:20:40.653Z,9.00
2022-11-07T04:23:23.320Z,9.10
2022-11-07T04:26:08.765Z,9.10
2022-11-07T04:28:37.266Z,9.20
2022-11-07T04:31:14.682Z,9.20
2022-11-07T04:33:43.010Z,9.20
2022-11-07T04:36:17.562Z,9.20
2022-11-07T04:38:52.557Z,9.20
2022-11-07T04:41:23.815Z,9.20
2022-11-07T04:43:52.628Z,9.10
2022-11-07T04:46:23.684Z,9.10
2022-11-07T04:48:51.982Z,9.10
2022-11-07T04:51:23.331Z,9.00
2022-11-07T04:53:53.112Z,9.00
2022-11-07T04:56:21.480Z,9.00
2022-11-07T04:58:52.887Z,9.00
2022-11-07T05:01:21.151Z,9.00
2022-11-07T05:03:55.790Z,8.90
2022-11-07T05:06:27.579Z,8.90
2022-11-07T05:08:59.739Z,8.90
2022-11-07T05:11:32.929Z,8.80
2022-11-07T05:14:01.581Z,8.70
2022-11-07T05:16:38.090Z,8.80
2022-11-07T05:19:11.056Z,8.70
2022-11-07T05:21:41.540Z,8.70
2022-11-07T05:24:11.120Z,8.70
2022-11-07T05:26:44.990Z,8.70
2022-11-07T05:29:15.695Z,8.70
2022-11-07T05:31:46.708Z,8.70
2022-11-07T05:34:24.914Z,8.70
2022-11-07T05:36:53.382Z,8.60
2022-11-07T05:39:55.571Z,8.60
2022-11-07T05:42:38.116Z,8.60
2022-11-07T05:45:17.530Z,8.40
2022-11-07T05:47:45.978Z,8.30
2022-11-07T05:50:26.003Z,8.00
2022-11-07T05:52:54.674Z,7.80
2022-11-07T05:55:46.384Z,7.60
2022-11-07T05:58:27.768Z,7.50
2022-11-07T06:01:33.020Z,7.30
2022-11-07T06:04:14.329Z,7.20
2022-11-07T06:06:55.311Z,7.00
2022-11-07T06:09:31.012Z,7.00
2022-11-07T06:12:06.712Z,6.90
2022-11-07T06:14:38.566Z,6.90
2022-11-07T06:17:09.251Z,6.90
2022-11-07T06:19:41.430Z,6.90
2022-11-07T06:22:12.704Z,6.80
2022-11-07T06:24:41.071Z,6.70
2022-11-07T06:27:17.379Z,6.70
2022-11-07T06:29:50.325Z,6.60
2022-11-07T06:32:19.949Z,6.70
2022-11-07T06:35:00.755Z,6.70
2022-11-07T06:37:32.240Z,6.70
2022-11-07T06:40:06.589Z,6.70
2022-11-07T06:42:46.426Z,6.70
2022-11-07T06:45:16.510Z,6.70
2022-11-07T06:47:45.417Z,6.80
2022-11-07T06:50:23.760Z,6.80
2022-11-07T06:52:59.077Z,6.90
2022-11-07T06:55:27.453Z,7.00
2022-11-07T06:58:02.453Z,7.00
2022-11-07T07:00:31.399Z,7.00
2022-11-07T07:02:59.975Z,7.10
2022-11-07T07:05:28.611Z,7.20
2022-11-07T07:07:56.880Z,7.10
2022-11-07T07:10:26.158Z,7.10
2022-11-07T07:12:54.979Z,7.20
2022-11-07T07:15:24.877Z,7.30
2022-11-07T07:17:53.189Z,7.30
2022-11-07T07:20:21.540Z,7.30
2022-11-07T07:22:56.901Z,7.40
2022-11-07T07:25:27.636Z,7.40
2022-11-07T07:27:55.860Z,7.50
2022-11-07T07:30:25.491Z,7.50
2022-11-07T07:32:53.698Z,7.50
2022-11-07T07:35:22.138Z,7.60
2022-11-07T07:37:53.639Z,7.70
2022-11-07T07:40:22.459Z,7.70
2022-11-07T07:42:50.658Z,7.70
2022-11-07T07:45:19.248Z,7.80
2022-11-07T07:47:49.096Z,7.80
2022-11-07T07:50:17.495Z,7.90
2022-11-07T07:52:45.644Z,8.00
2022-11-07T07:55:13.914Z,8.00
2022-11-07T07:57:43.255Z,8.00
2022-11-07T08:00:13.008Z,8.10
2022-11-07T08:02:47.486Z,8.10
2022-11-07T08:05:28.867Z,8.20
2022-11-07T08:08:14.550Z,8.20
2022-11-07T08:10:55.643Z,8.30
2022-11-07T08:13:38.357Z,8.40
2022-11-07T08:16:08.775Z,8.40
2022-11-07T08:18:40.019Z,8.50
2022-11-07T08:21:10.015Z,8.50
2022-11-07T08:23:38.451Z,8.60
2022-11-07T08:26:07.352Z,8.60
2022-11-07T08:28:37.191Z,8.70
2022-11-07T08:31:08.039Z,8.70
2022-11-07T08:33:36.952Z,8.70
2022-11-07T08:36:07.554Z,8.80
2022-11-07T08:38:37.701Z,8.90
2022-11-07T08:41:06.600Z,9.00
2022-11-07T08:43:34.739Z,9.10
2022-11-07T08:46:03.001Z,9.20
2022-11-07T08:48:31.196Z,9.30
2022-11-07T08:50:59.754Z,9.40
2022-11-07T08:53:28.498Z,9.50
2022-11-07T08:56:04.012Z,9.50
2022-11-07T08:58:32.288Z,9.50
2022-11-07T09:01:01.496Z,9.50
2022-11-07T09:03:47.841Z,9.50
2022-11-07T09:06:25.263Z,9.60
2022-11-07T09:08:59.518Z,9.60
2022-11-07T09:11:36.067Z,9.70
2022-11-07T09:14:27.633Z,9.80
2022-11-07T09:16:55.804Z,9.90
2022-11-07T09:19:23.980Z,10.10
2022-11-07T09:21:52.114Z,10.20
2022-11-07T09:24:20.480Z,10.30
2022-11-07T09:26:50.254Z,10.50
2022-11-07T09:29:18.667Z,10.60
2022-11-07T09:31:46.990Z,10.70
2022-11-07T09:34:15.174Z,10.80
2022-11-07T09:36:43.566Z,11.00
2022-11-07T09:39:11.784Z,11.10
2022-11-07T09:41:54.419Z,11.20
2022-11-07T09:44:49.940Z,11.30
2022-11-07T09:47:22.635Z,11.40
2022-11-07T09:49:53.033Z,11.60
2022-11-07T09:52:27.192Z,11.90
2022-11-07T09:54:59.682Z,12.10
2022-11-07T09:57:34.403Z,12.20
2022-11-07T10:00:05.620Z,12.50
2022-11-07T10:02:36.779Z,12.80
2022-11-07T10:05:06.104Z,13.10
2022-11-07T10:07:43.146Z,13.40
2022-11-07T10:10:19.386Z,13.80
2022-11-07T10:13:09.513Z,14.20
2022-11-07T10:15:52.842Z,15.20
2022-11-07T10:18:33.855Z,15.90
2022-11-07T10:21:36.096Z,16.40
2022-11-07T10:24:19.534Z,16.60
2022-11-07T10:26:47.618Z,17.10
2022-11-07T10:29:19.240Z,17.20
2022-11-07T10:31:56.278Z,17.20
2022-11-07T10:34:30.638Z,17.00
2022-11-07T10:36:58.779Z,17.00
2022-11-07T10:39:27.003Z,16.90
2022-11-07T10:42:04.122Z,16.80
2022-11-07T10:44:35.186Z,17.00
2022-11-07T10:47:03.620Z,17.20
2022-11-07T10:49:33.625Z,17.20
2022-11-07T10:52:09.728Z,17.30
2022-11-07T10:54:37.846Z,17.10
2022-11-07T10:57:11.979Z,17.10
2022-11-07T10:59:46.647Z,17.30
2022-11-07T11:02:21.804Z,17.60
2022-11-07T11:04:51.837Z,17.70
2022-11-07T11:07:24.190Z,17.60
2022-11-07T11:09:57.165Z,17.60
2022-11-07T11:12:27.639Z,17.90
2022-11-07T11:15:12.073Z,17.90
2022-11-07T11:17:40.797Z,17.90
2022-11-07T11:20:31.134Z,17.90
2022-11-07T11:23:00.959Z,18.50
2022-11-07T11:25:29.174Z,18.80
2022-11-07T11:28:03.750Z,18.70
2022-11-07T11:30:37.211Z,18.40
2022-11-07T11:33:13.249Z,18.70
2022-11-07T11:35:48.228Z,18.70
2022-11-07T11:38:21.536Z,19.10
2022-11-07T11:41:01.545Z,19.10
2022-11-07T11:43:42.948Z,19.40
2022-11-07T11:46:17.942Z,19.00
2022-11-07T11:48:51.787Z,18.80
2022-11-07T11:51:31.175Z,18.40
2022-11-07T11:53:59.537Z,18.20
2022-11-07T11:56:38.966Z,17.90
2022-11-07T11:59:31.319Z,17.90
2022-11-07T12:02:17.763Z,18.10
2022-11-07T12:04:56.530Z,18.30
2022-11-07T12:07:43.212Z,18.50
2022-11-07T12:10:17.509Z,18.80
2022-11-07T12:12:57.249Z,19.20
2022-11-07T12:15:39.033Z,19.90
2022-11-07T12:18:16.501Z,20.30
2022-11-07T12:20:58.748Z,20.30
2022-11-07T12:23:43.470Z,19.90
2022-11-07T12:26:16.905Z,19.80
2022-11-07T12:28:53.338Z,19.90
2022-11-07T12:31:36.709Z,19.80
2022-11-07T12:34:17.113Z,20.00
2022-11-07T12:37:00.190Z,20.40
2022-11-07T12:39:48.011Z,21.00
2022-11-07T12:42:27.110Z,21.20
2022-11-07T12:45:06.342Z,21.60
2022-11-07T12:47:47.052Z,21.90
2022-11-07T12:50:32.381Z,21.80
2022-11-07T12:53:10.853Z,21.60
2022-11-07T12:55:44.064Z,21.80
2022-11-07T12:58:18.544Z,21.90
2022-11-07T13:00:47.765Z,21.80
2022-11-07T13:03:47.885Z,21.90
2022-11-07T13:06:24.660Z,21.80
2022-11-07T13:09:17.923Z,21.40
2022-11-07T13:11:54.206Z,21.40
2022-11-07T13:14:29.355Z,21.30
2022-11-07T13:17:13.509Z,21.30
2022-11-07T13:19:44.349Z,21.30
2022-11-07T13:22:32.184Z,21.40
2022-11-07T13:25:15.101Z,21.10
2022-11-07T13:27:46.840Z,20.80
2022-11-07T13:30:21.315Z,20.70
2022-11-07T13:32:51.105Z,20.60
2022-11-07T13:35:29.427Z,20.30
2022-11-07T13:38:08.308Z,20.10
2022-11-07T13:40:39.213Z,19.80
2022-11-07T13:43:14.157Z,19.50
2022-11-07T13:45:47.369Z,19.20
2022-11-07T13:48:20.119Z,18.90
2022-11-07T13:50:52.933Z,18.60
2022-11-07T13:53:28.698Z,18.50
2022-11-07T13:56:02.310Z,18.30
2022-11-07T13:58:34.764Z,18.10
2022-11-07T14:01:11.547Z,17.80
2022-11-07T14:03:40.453Z,17.70
2022-11-07T14:06:09.008Z,17.50
2022-11-07T14:08:40.997Z,17.40
2022-11-07T14:11:17.893Z,17.30
2022-11-07T14:13:49.548Z,17.20
2022-11-07T14:16:22.030Z,17.10
2022-11-07T14:18:52.408Z,17.00
2022-11-07T14:21:22.050Z,17.00
2022-11-07T14:23:51.867Z,16.90
2022-11-07T14:26:23.354Z,16.80
2022-11-07T14:28:53.968Z,16.60
2022-11-07T14:31:27.758Z,16.60
2022-11-07T14:33:58.663Z,16.50
2022-11-07T14:36:27.845Z,16.40
2022-11-07T14:39:04.501Z,16.30
2022-11-07T14:41:33.485Z,16.30
2022-11-07T14:44:05.331Z,16.30
2022-11-07T14:46:33.698Z,16.20
2022-11-07T14:49:01.975Z,16.20
2022-11-07T14:51:32.647Z,16.10
2022-11-07T14:54:06.300Z,16.00
2022-11-07T14:56:38.665Z,16.00
2022-11-07T14:59:10.673Z,15.90
2022-11-07T15:01:39.117Z,15.90
2022-11-07T15:04:18.213Z,15.80
2022-11-07T15:06:46.839Z,15.70
2022-11-07T15:09:18.558Z,15.70
2022-11-07T15:11:58.380Z,15.60
2022-11-07T15:14:32.451Z,15.60
2022-11-07T15:17:04.254Z,15.50
2022-11-07T15:19:35.673Z,15.40
2022-11-07T15:22:06.132Z,15.30
2022-11-07T15:24:41.563Z,15.20
2022-11-07T15:27:20.460Z,15.10
2022-11-07T15:29:53.229Z,14.90
2022-11-07T15:32:23.107Z,14.90
2022-11-07T15:35:07.960Z,14.80
2022-11-07T15:37:41.529Z,14.60
2022-11-07T15:40:18.558Z,14.60
2022-11-07T15:42:46.823Z,14.50
2022-11-07T15:45:15.312Z,14.40
2022-11-07T15:47:44.102Z,14.40
2022-11-07T15:50:17.737Z,14.30
2022-11-07T15:52:46.014Z,14.30
2022-11-07T15:55:17.655Z,14.10
2022-11-07T15:57:47.968Z,14.10
2022-11-07T16:00:17.984Z,14.00
2022-11-07T16:02:46.885Z,14.00
2022-11-07T16:05:16.377Z,13.90
2022-11-07T16:07:46.185Z,13.90
2022-11-07T16:10:22.023Z,13.90
2022-11-07T16:12:50.770Z,13.90
2022-11-07T16:15:21.241Z,13.80
2022-11-07T16:17:49.663Z,13.70
2022-11-07T16:20:19.479Z,13.70
2022-11-07T16:22:48.837Z,13.70
2022-11-07T16:25:22.104Z,13.60
2022-11-07T16:27:53.355Z,13.50
2022-11-07T16:30:22.172Z,13.50
2022-11-07T16:32:50.595Z,13.50
2022-11-07T16:35:19.950Z,13.40
2022-11-07T16:37:48.772Z,13.30
2022-11-07T16:40:20.439Z,13.30
2022-11-07T16:42:48.748Z,13.30
2022-11-07T16:45:19.302Z,13.30
2022-11-07T16:47:47.883Z,13.20
2022-11-07T16:50:17.796Z,13.20
2022-11-07T16:52:46.226Z,13.10
2022-11-07T16:55:20.751Z,13.00
2022-11-07T16:57:49.448Z,13.00
2022-11-07T17:00:19.954Z,12.90
2022-11-07T17:02:48.882Z,12.90
2022-11-07T17:05:17.448Z,12.80
2022-11-07T17:07:45.747Z,12.80
2022-11-07T17:10:17.586Z,12.80
2022-11-07T17:12:47.430Z,12.70
2022-11-07T17:15:15.632Z,12.70
2022-11-07T17:17:44.060Z,12.60
2022-11-07T17:20:41.081Z,12.60
2022-11-07T17:23:09.977Z,12.60
2022-11-07T17:25:39.295Z,12.50
2022-11-07T17:28:09.576Z,12.40
2022-11-07T17:30:38.014Z,12.40
2022-11-07T17:33:06.197Z,12.30
2022-11-07T17:35:35.390Z,12.30
2022-11-07T17:38:03.977Z,12.30
2022-11-07T17:40:34.504Z,12.20
2022-11-07T17:43:03.160Z,12.20
2022-11-07T17:45:33.190Z,12.10
2022-11-07T17:48:01.542Z,12.10
2022-11-07T17:50:30.002Z,12.00
2022-11-07T17:52:58.302Z,12.00
2022-11-07T17:55:26.644Z,11.90
2022-11-07T17:57:55.036Z,11.80
2022-11-07T18:00:27.296Z,11.80
2022-11-07T18:02:57.239Z,11.70
2022-11-07T18:05:32.800Z,11.70
2022-11-07T18:08:02.674Z,11.60
2022-11-07T18:10:31.057Z,11.50
2022-11-07T18:12:59.240Z,11.40
2022-11-07T18:15:27.585Z,11.30
2022-11-07T18:17:57.209Z,11.30
2022-11-07T18:20:26.042Z,11.30
2022-11-07T18:22:54.476Z,11.20
2022-11-07T18:25:22.773Z,11.20
2022-11-07T18:27:51.172Z,11.10
2022-11-07T18:30:19.591Z,11.00
2022-11-07T18:32:47.863Z,11.00
2022-11-07T18:35:17.718Z,10.90
2022-11-07T18:37:46.024Z,10.90
2022-11-07T18:40:14.990Z,10.90
2022-11-07T18:42:46.875Z,10.80
2022-11-07T18:45:15.447Z,10.80
2022-11-07T18:47:43.718Z,10.80
2022-11-07T18:50:12.606Z,10.70
2022-11-07T18:52:42.429Z,10.70
2022-11-07T18:55:11.227Z,10.70
2022-11-07T18:57:39.451Z,10.60
2022-11-07T19:00:13.418Z,10.60
2022-11-07T19:02:42.310Z,10.60
2022-11-07T19:05:10.784Z,10.50
2022-11-07T19:07:42.974Z,10.50
2022-11-07T19:10:13.882Z,10.50
2022-11-07T19:12:42.733Z,10.50
2022-11-07T19:15:12.183Z,10.40
2022-11-07T19:17:40.796Z,10.40
2022-11-07T19:20:10.152Z,10.40
2022-11-07T19:22:38.382Z,10.40
2022-11-07T19:25:07.180Z,10.30
2022-11-07T19:27:37.267Z,10.30
2022-11-07T19:30:06.768Z,10.30
2022-11-07T19:32:35.180Z,10.30
2022-11-07T19:35:03.504Z,10.20
2022-11-07T19:37:31.813Z,10.20
2022-11-07T19:40:00.170Z,10.20
2022-11-07T19:42:28.773Z,10.10
2022-11-07T19:44:58.626Z,10.10
2022-11-07T19:47:26.860Z,10.10
2022-11-07T19:49:55.408Z,10.10
2022-11-07T19:52:23.731Z,10.10
2022-11-07T19:54:52.533Z,10.10
2022-11-07T19:57:21.403Z,10.10
2022-11-07T19:59:49.813Z,10.00
2022-11-07T20:02:33.150Z,10.00
2022-11-07T20:05:01.909Z,10.00
2022-11-07T20:07:30.301Z,10.00
2022-11-07T20:09:58.922Z,10.00
2022-11-07T20:12:27.230Z,9.90
2022-11-07T20:14:55.500Z,9.90
2022-11-07T20:17:25.236Z,9.90
2022-11-07T20:19:53.614Z,9.90
2022-11-07T20:22:22.061Z,9.90
2022-11-07T20:24:50.779Z,9.80
2022-11-07T20:27:19.118Z,9.80
2022-11-07T20:29:47.420Z,9.80
2022-11-07T20:32:15.779Z,9.70
2022-11-07T20:34:49.924Z,9.80
2022-11-07T20:37:21.909Z,9.70
2022-11-07T20:39:50.676Z,9.70
2022-11-07T20:42:19.266Z,9.70
2022-11-07T20:44:48.203Z,9.60
2022-11-07T20:47:16.450Z,9.60
2022-11-07T20:49:46.250Z,9.60
2022-11-07T20:52:14.779Z,9.50
2022-11-07T20:54:43.222Z,9.50
2022-11-07T20:57:11.570Z,9.50
2022-11-07T20:59:41.335Z,9.40
2022-11-07T21:02:13.260Z,9.50
2022-11-07T21:05:03.302Z,9.40
2022-11-07T21:07:32.196Z,9.40
2022-11-07T21:10:00.435Z,9.30
2022-11-07T21:12:28.720Z,9.30
2022-11-07T21:14:57.003Z,9.40
2022-11-07T21:17:25.353Z,9.30
2022-11-07T21:19:53.647Z,9.20
2022-11-07T21:22:26.619Z,9.20
2022-11-07T21:24:58.727Z,9.20
2022-11-07T21:27:26.925Z,9.20
2022-11-07T21:29:55.193Z,9.20
2022-11-07T21:32:23.557Z,9.10
2022-11-07T21:34:51.989Z,9.10
2022-11-07T21:37:20.440Z,9.10
2022-11-07T21:39:48.789Z,9.10
2022-11-07T21:42:18.493Z,9.00
2022-11-07T21:44:46.760Z,9.00
2022-11-07T21:47:15.090Z,9.00
2022-11-07T21:49:43.372Z,9.00
2022-11-07T21:52:12.027Z,9.00
2022-11-07T21:54:40.263Z,9.00
2022-11-07T21:57:08.593Z,8.90
2022-11-07T21:59:38.413Z,8.90
2022-11-07T22:02:06.892Z,8.90
2022-11-07T22:04:35.257Z,8.90
2022-11-07T22:07:03.552Z,8.90
2022-11-07T22:09:32.144Z,8.80
2022-11-07T22:12:00.505Z,8.90
2022-11-07T22:14:28.889Z,8.90
2022-11-07T22:16:58.799Z,8.90
2022-11-07T22:19:27.641Z,8.80
2022-11-07T22:21:56.029Z,8.80
2022-11-07T22:24:27.345Z,8.80
2022-11-07T22:26:57.265Z,8.80
2022-11-07T22:29:25.714Z,8.80
2022-11-07T22:31:54.028Z,8.80
2022-11-07T22:34:24.039Z,8.70
2022-11-07T22:36:52.579Z,8.70
2022-11-07T22:39:20.898Z,8.60
2022-11-07T22:41:49.580Z,8.60
2022-11-07T22:44:17.793Z,8.60
2022-11-07T22:46:46.118Z,8.60
2022-11-07T22:49:14.397Z,8.60
2022-11-07T22:51:44.041Z,8.60
2022-11-07T22:54:14.061Z,8.60
2022-11-07T22:56:42.669Z,8.60
2022-11-07T22:59:12.596Z,8.60
2022-11-07T23:01:43.321Z,8.50
2022-11-07T23:04:15.660Z,8.50
2022-11-07T23:06:46.018Z,8.50
2022-11-07T23:09:15.770Z,8.50
2022-11-07T23:11:46.911Z,8.50
2022-11-07T23:14:17.284Z,8.40
2022-11-07T23:16:47.921Z,8.40
2022-11-07T23:19:18.476Z,8.40
2022-11-07T23:21:49.053Z,8.40
2022-11-07T23:24:17.416Z,8.30
2022-11-07T23:26:46.134Z,8.30
2022-11-07T23:29:15.954Z,8.30
2022-11-07T23:31:46.999Z,8.30
2022-11-07T23:34:15.840Z,8.30
2022-11-07T23:36:45.128Z,8.30
2022-11-07T23:39:17.537Z,8.20
2022-11-07T23:41:46.399Z,8.20
2022-11-07T23:44:15.681Z,8.20
2022-11-07T23:47:01.937Z,8.10
2022-11-07T23:49:50.185Z,8.10
2022-11-07T23:52:18.812Z,8.10
2022-11-07T23:55:05.940Z,8.10
2022-11-07T23:57:58.430Z,8.10
